Time;durP1;ratioP1;P1;durP2;ratioP2;P2;SDS_P1;SDS_P2;PMS_P1;PMS_P2;Temp;Humidity;BMP_temperature;BMP_pressure;BME280_temperature;BME280_humidity;BME280_pressure;Samples;Min_cycle;Max_cycle;Signal;HPM_P1;HPM_P2
2022/01/03 00:00:35;;;;;;;15.80;3.70;;;11.10;50.30;;;;;;5032742;28;20253;-72
2022/01/03 00:03:04;;;;;;;21.03;3.83;;;11.10;48.80;;;;;;5032921;28;20170;-72
2022/01/03 00:05:30;;;;;;;20.47;3.70;;;11.10;48.00;;;;;;5031125;28;20202;-71
2022/01/03 00:07:57;;;;;;;23.63;4.17;;;11.10;47.10;;;;;;5030846;28;20592;-72
2022/01/03 00:10:23;;;;;;;21.50;3.90;;;11.10;44.50;;;;;;5032615;28;20216;-72
2022/01/03 00:12:49;;;;;;;25.83;3.87;;;11.10;41.50;;;;;;5032627;28;20549;-72
2022/01/03 00:15:16;;;;;;;17.13;4.03;;;11.10;38.80;;;;;;5032526;28;20517;-72
2022/01/03 00:17:43;;;;;;;26.67;4.43;;;11.10;40.30;;;;;;5033498;28;20173;-72
2022/01/03 00:20:11;;;;;;;21.70;3.80;;;11.10;45.10;;;;;;5036431;28;20261;-71
2022/01/03 00:23:04;;;;;;;24.57;4.37;;;11.10;39.00;;;;;;5035873;28;20703;-71
2022/01/03 00:25:30;;;;;;;16.63;3.50;;;11.10;40.00;;;;;;5034940;28;20224;-71
2022/01/03 00:28:16;;;;;;;23.70;4.10;;;11.10;40.10;;;;;;5036280;28;20632;-71
2022/01/03 00:30:43;;;;;;;12.60;3.47;;;11.20;34.60;;;;;;5036347;28;20197;-71
2022/01/03 00:33:10;;;;;;;13.13;2.70;;;11.20;29.40;;;;;;5035944;28;20173;-71
2022/01/03 00:35:40;;;;;;;18.43;4.00;;;11.10;31.10;;;;;;5035733;28;20534;-71
2022/01/03 00:38:11;;;;;;;15.33;3.87;;;11.10;30.90;;;;;;5036173;28;20166;-71
2022/01/03 00:40:38;;;;;;;21.57;3.90;;;11.10;39.40;;;;;;5036053;28;20189;-71
2022/01/03 00:43:04;;;;;;;19.33;3.20;;;11.10;42.20;;;;;;5036430;28;20235;-71
2022/01/03 00:45:30;;;;;;;17.73;3.67;;;11.10;37.40;;;;;;5035801;28;20177;-70
2022/01/03 00:47:56;;;;;;;15.47;3.00;;;11.20;33.20;;;;;;5035896;28;20676;-70
2022/01/03 00:50:23;;;;;;;21.73;3.93;;;11.20;33.40;;;;;;5034125;28;20257;-71
2022/01/03 00:52:50;;;;;;;18.70;3.70;;;11.30;26.90;;;;;;5034629;28;20178;-71
2022/01/03 00:55:17;;;;;;;21.73;3.70;;;11.20;25.70;;;;;;5035465;28;20556;-71
2022/01/03 00:57:49;;;;;;;24.20;3.73;;;11.30;25.40;;;;;;5035820;28;20177;-72
2022/01/03 01:00:15;;;;;;;19.10;4.00;;;11.30;25.30;;;;;;5035561;28;20185;-71
2022/01/03 01:02:50;;;;;;;18.30;3.80;;;11.30;24.10;;;;;;5035668;28;20170;-70
2022/01/03 01:05:17;;;;;;;14.00;3.30;;;11.30;22.40;;;;;;5035210;28;20691;-71
2022/01/03 01:07:45;;;;;;;18.60;3.17;;;11.30;22.40;;;;;;5035706;28;20178;-71
2022/01/03 01:10:10;;;;;;;22.00;3.90;;;11.30;18.90;;;;;;5035520;28;20308;-71
2022/01/03 01:12:37;;;;;;;19.87;3.30;;;11.30;15.50;;;;;;5035448;28;20684;-70
2022/01/03 01:15:03;;;;;;;11.97;3.20;;;11.30;14.70;;;;;;5035496;28;20177;-70
2022/01/03 01:17:29;;;;;;;12.90;3.30;;;11.20;13.60;;;;;;5035354;28;20205;-70
2022/01/03 01:19:58;;;;;;;14.67;3.53;;;11.20;19.60;;;;;;5034885;28;20213;-71
2022/01/03 01:22:24;;;;;;;16.87;4.07;;;11.20;20.60;;;;;;5035388;28;20654;-71
2022/01/03 01:25:10;;;;;;;16.03;3.07;;;11.10;21.50;;;;;;5034993;28;20339;-70
2022/01/03 01:27:52;;;;;;;13.30;3.27;;;11.10;24.40;;;;;;5035150;28;20170;-71
2022/01/03 01:30:21;;;;;;;12.43;3.30;;;11.10;24.60;;;;;;5035041;28;20651;-70
2022/01/03 01:33:11;;;;;;;12.13;3.23;;;11.10;25.90;;;;;;5034929;28;20261;-71
2022/01/03 01:35:55;;;;;;;18.63;3.47;;;11.20;25.10;;;;;;5034734;28;20177;-70
2022/01/03 01:38:29;;;;;;;16.87;3.80;;;11.20;24.00;;;;;;5035138;28;20170;-71
2022/01/03 01:40:56;;;;;;;18.33;3.80;;;11.20;22.60;;;;;;5035165;28;20169;-71
2022/01/03 01:43:41;;;;;;;16.97;3.97;;;11.30;16.20;;;;;;5034811;28;20174;-70
2022/01/03 01:46:13;;;;;;;19.17;3.73;;;11.30;20.90;;;;;;5034750;28;20174;-70
2022/01/03 01:48:41;;;;;;;16.50;3.20;;;11.30;12.10;;;;;;5034352;28;20201;-71
2022/01/03 01:51:09;;;;;;;15.43;3.70;;;11.40;8.40;;;;;;5034891;28;20264;-71
2022/01/03 01:53:55;;;;;;;18.63;3.77;;;11.30;13.90;;;;;;5034717;28;20284;-71
2022/01/03 01:56:27;;;;;;;14.17;3.07;;;11.30;12.10;;;;;;5034543;28;20174;-71
2022/01/03 01:59:07;;;;;;;18.97;3.33;;;11.30;15.80;;;;;;5034527;28;20214;-70
2022/01/03 02:02:05;;;;;;;16.37;3.47;;;11.30;15.50;;;;;;5033303;28;20173;-70
2022/01/03 02:04:46;;;;;;;18.53;3.63;;;11.40;10.80;;;;;;5034196;28;20170;-69
2022/01/03 02:07:49;;;;;;;17.97;3.37;;;11.40;11.50;;;;;;5034401;28;20166;-71
2022/01/03 02:10:16;;;;;;;20.13;3.90;;;11.50;2.90;;;;;;5034234;28;20205;-71
2022/01/03 02:12:47;;;;;;;15.70;4.00;;;11.60;2.60;;;;;;5034351;28;20174;-71
2022/01/03 02:15:15;;;;;;;19.67;4.03;;;11.50;3.40;;;;;;5032954;28;20572;-70
2022/01/03 02:17:44;;;;;;;22.23;4.00;;;11.50;1.00;;;;;;5033913;28;20162;-70
2022/01/03 02:20:14;;;;;;;17.47;3.63;;;11.50;2.70;;;;;;5034191;28;20196;-71
2022/01/03 02:22:42;;;;;;;15.47;3.80;;;11.50;2.70;;;;;;5034161;28;20658;-71
2022/01/03 02:25:09;;;;;;;16.87;3.13;;;11.50;3.40;;;;;;5033774;28;20217;-70
2022/01/03 02:27:37;;;;;;;19.00;3.80;;;11.40;4.20;;;;;;5033857;28;20170;-72
2022/01/03 02:30:05;;;;;;;19.87;4.20;;;11.40;6.00;;;;;;5033815;28;21002;-71
2022/01/03 02:32:31;;;;;;;11.13;3.10;;;11.40;10.20;;;;;;5033643;28;20173;-71
2022/01/03 02:34:56;;;;;;;16.30;3.23;;;11.30;14.50;;;;;;5033845;28;20170;-71
2022/01/03 02:37:23;;;;;;;14.20;3.07;;;11.30;13.70;;;;;;5032781;28;20660;-71
2022/01/03 02:39:53;;;;;;;13.30;3.10;;;11.30;14.80;;;;;;5033465;28;20169;-71
2022/01/03 02:42:23;;;;;;;11.43;2.83;;;11.30;14.70;;;;;;5033415;28;20653;-71
2022/01/03 02:45:03;;;;;;;15.97;3.10;;;11.30;15.80;;;;;;5033891;28;20182;-70
2022/01/03 02:47:28;;;;;;;14.10;3.10;;;11.20;14.30;;;;;;5033376;28;20177;-70
2022/01/03 02:49:54;;;;;;;15.73;3.10;;;11.20;15.30;;;;;;5033786;28;20202;-71
2022/01/03 02:52:20;;;;;;;15.50;3.00;;;11.20;17.20;;;;;;5033620;28;20667;-71
2022/01/03 02:54:47;;;;;;;11.20;2.97;;;11.20;17.30;;;;;;5033432;28;20205;-71
2022/01/03 02:57:13;;;;;;;12.90;3.23;;;11.10;20.10;;;;;;5033415;28;20606;-70
2022/01/03 02:59:39;;;;;;;19.40;3.60;;;11.10;23.90;;;;;;5033415;28;20178;-71
2022/01/03 03:02:05;;;;;;;13.67;2.67;;;11.10;23.70;;;;;;5033099;28;20625;-70
2022/01/03 03:04:31;;;;;;;13.97;2.90;;;11.10;24.30;;;;;;5033500;28;20213;-70
2022/01/03 03:06:57;;;;;;;14.30;3.40;;;11.10;20.80;;;;;;5033426;28;20197;-70
2022/01/03 03:09:22;;;;;;;14.27;2.63;;;11.00;23.80;;;;;;5033213;28;20252;-71
2022/01/03 03:11:48;;;;;;;12.70;3.20;;;11.00;25.00;;;;;;5033449;28;20208;-70
2022/01/03 03:14:13;;;;;;;15.00;3.57;;;10.80;30.40;;;;;;5033416;28;20174;-70
2022/01/03 03:16:40;;;;;;;17.27;2.93;;;10.80;37.40;;;;;;5032993;28;20170;-71
2022/01/03 03:19:06;;;;;;;15.63;3.27;;;10.80;42.40;;;;;;5033281;28;20185;-69
2022/01/03 03:21:32;;;;;;;19.17;3.40;;;10.80;46.20;;;;;;5033278;28;20173;-71
2022/01/03 03:23:58;;;;;;;15.80;3.30;;;10.70;43.50;;;;;;5032900;28;20225;-72
2022/01/03 03:26:24;;;;;;;13.03;3.03;;;10.60;44.70;;;;;;5033219;28;20629;-71
2022/01/03 03:28:50;;;;;;;16.13;3.40;;;10.60;48.80;;;;;;5032915;28;20266;-70
2022/01/03 03:31:16;;;;;;;12.97;3.13;;;10.60;49.50;;;;;;5032758;28;20535;-70
2022/01/03 03:33:41;;;;;;;13.97;3.17;;;10.50;52.20;;;;;;5033055;28;20269;-70
2022/01/03 03:36:08;;;;;;;11.73;3.17;;;10.50;52.10;;;;;;5033080;28;20182;-70
2022/01/03 03:38:34;;;;;;;18.30;3.50;;;10.60;50.50;;;;;;5032840;28;20648;-70
2022/01/03 03:41:01;;;;;;;11.83;3.20;;;10.60;51.10;;;;;;5033113;28;20259;-70
2022/01/03 03:43:27;;;;;;;15.17;3.10;;;10.60;49.80;;;;;;5032690;28;20166;-70
2022/01/03 03:45:52;;;;;;;10.03;3.27;;;10.60;46.60;;;;;;5032540;28;20178;-70
2022/01/03 03:48:19;;;;;;;16.70;3.40;;;10.60;45.70;;;;;;5032852;28;20277;-70
2022/01/03 03:50:46;;;;;;;16.30;3.73;;;10.50;49.20;;;;;;5033172;28;20275;-71
2022/01/03 03:53:12;;;;;;;19.97;3.50;;;10.40;56.10;;;;;;5036029;28;20181;-71
2022/01/03 03:55:38;;;;;;;12.30;3.17;;;10.40;61.30;;;;;;5036734;28;20193;-71
2022/01/03 03:58:05;;;;;;;19.57;3.93;;;10.40;62.30;;;;;;5036580;28;20526;-70
2022/01/03 04:00:32;;;;;;;19.57;3.63;;;10.40;59.40;;;;;;5036588;28;20204;-70
2022/01/03 04:02:57;;;;;;;14.03;3.67;;;10.40;59.90;;;;;;5036796;28;20165;-70
2022/01/03 04:05:23;;;;;;;19.47;3.40;;;10.50;59.60;;;;;;5036600;28;20697;-70
2022/01/03 04:07:49;;;;;;;15.30;3.27;;;10.50;60.30;;;;;;5036647;28;20180;-69
2022/01/03 04:10:18;;;;;;;18.60;3.50;;;10.60;57.80;;;;;;5036458;28;20724;-70
2022/01/03 04:12:44;;;;;;;18.17;3.47;;;10.60;51.90;;;;;;5036480;28;20637;-70
2022/01/03 04:15:11;;;;;;;16.07;3.53;;;10.60;54.50;;;;;;5035703;28;20209;-70
2022/01/03 04:17:37;;;;;;;18.27;3.70;;;10.60;51.50;;;;;;5036310;28;20779;-70
2022/01/03 04:20:07;;;;;;;21.97;3.83;;;10.70;48.20;;;;;;5036001;28;20253;-69
2022/01/03 04:22:33;;;;;;;13.57;3.33;;;10.70;45.50;;;;;;5036211;28;20216;-70
2022/01/03 04:24:58;;;;;;;13.93;3.23;;;10.70;46.30;;;;;;5035853;28;20229;-70
2022/01/03 04:27:24;;;;;;;15.63;3.43;;;10.80;38.30;;;;;;5034833;28;20173;-69
2022/01/03 04:29:50;;;;;;;14.37;3.17;;;10.90;40.10;;;;;;5035619;28;20721;-70
2022/01/03 04:32:15;;;;;;;25.23;3.43;;;10.90;36.90;;;;;;5036325;28;20177;-69
2022/01/03 04:34:41;;;;;;;19.23;3.87;;;10.90;33.90;;;;;;5035669;28;20200;-70
2022/01/03 04:37:07;;;;;;;12.77;3.27;;;10.90;33.20;;;;;;5036035;28;20170;-69
2022/01/03 04:39:32;;;;;;;16.90;3.47;;;10.80;34.60;;;;;;5035891;28;20178;-71
2022/01/03 04:41:58;;;;;;;19.30;3.40;;;10.90;35.80;;;;;;5035725;28;20177;-70
2022/01/03 04:44:23;;;;;;;17.83;3.70;;;11.00;27.90;;;;;;5035575;28;20177;-69
2022/01/03 04:46:50;;;;;;;12.33;3.33;;;11.10;26.20;;;;;;5035445;28;20560;-69
2022/01/03 04:49:16;;;;;;;17.67;3.30;;;11.10;19.40;;;;;;5035435;28;20249;-69
2022/01/03 04:51:41;;;;;;;22.97;3.80;;;11.00;19.90;;;;;;5035538;28;20525;-69
2022/01/03 04:54:07;;;;;;;14.53;3.17;;;11.00;22.20;;;;;;5035287;28;20280;-70
2022/01/03 04:56:36;;;;;;;16.40;3.27;;;11.00;22.00;;;;;;5035360;28;20263;-70
2022/01/03 04:59:01;;;;;;;11.83;3.03;;;11.00;19.40;;;;;;5035473;28;20174;-70
2022/01/03 05:01:27;;;;;;;15.63;3.30;;;11.10;17.80;;;;;;5035728;28;20564;-70
2022/01/03 05:03:53;;;;;;;17.60;3.13;;;11.00;18.50;;;;;;5034393;28;20704;-70
2022/01/03 05:06:19;;;;;;;14.90;2.90;;;11.00;19.30;;;;;;5035462;28;20197;-70
2022/01/03 05:08:46;;;;;;;16.97;3.43;;;11.00;20.10;;;;;;5035061;28;20166;-69
2022/01/03 05:11:12;;;;;;;16.80;3.60;;;11.00;20.80;;;;;;5034724;28;20178;-70
2022/01/03 05:13:37;;;;;;;11.83;3.20;;;11.00;22.60;;;;;;5035151;28;20166;-69
2022/01/03 05:16:04;;;;;;;16.87;3.17;;;11.00;20.60;;;;;;5035346;28;20217;-69
2022/01/03 05:18:30;;;;;;;15.97;3.07;;;11.00;17.00;;;;;;5034999;28;20181;-70
2022/01/03 05:20:56;;;;;;;15.97;3.70;;;11.00;19.00;;;;;;5034669;28;20718;-71
2022/01/03 05:23:22;;;;;;;15.87;3.63;;;11.00;17.70;;;;;;5034693;28;20166;-69
2022/01/03 05:25:49;;;;;;;15.97;3.67;;;10.90;19.50;;;;;;5034240;28;20178;-69
2022/01/03 05:28:15;;;;;;;14.87;3.73;;;10.90;21.70;;;;;;5035199;28;20170;-69
2022/01/03 05:30:41;;;;;;;20.87;3.70;;;10.90;24.60;;;;;;5034624;28;20295;-69
2022/01/03 05:33:07;;;;;;;22.73;3.90;;;10.90;25.50;;;;;;5034729;28;20744;-69
2022/01/03 05:35:33;;;;;;;17.50;4.00;;;10.90;24.10;;;;;;5034664;28;20200;-68
2022/01/03 05:37:59;;;;;;;21.23;3.90;;;10.90;22.30;;;;;;5034088;28;20220;-69
2022/01/03 05:40:25;;;;;;;12.83;3.80;;;11.00;21.20;;;;;;5034053;28;20181;-70
2022/01/03 05:42:51;;;;;;;17.77;3.37;;;11.00;16.90;;;;;;5034712;28;20177;-69
2022/01/03 05:45:17;;;;;;;21.57;4.00;;;11.10;19.10;;;;;;5034231;28;20189;-70
2022/01/03 05:47:45;;;;;;;17.80;3.63;;;11.00;20.00;;;;;;5034113;28;20201;-69
2022/01/03 05:50:11;;;;;;;22.03;4.00;;;11.10;21.30;;;;;;5034105;28;20673;-69
2022/01/03 05:52:37;;;;;;;18.93;4.07;;;11.10;20.90;;;;;;5034201;28;20182;-68
2022/01/03 05:55:04;;;;;;;18.03;4.27;;;11.00;33.50;;;;;;5033676;28;20300;-68
2022/01/03 05:57:29;;;;;;;13.30;3.50;;;11.00;49.30;;;;;;5032773;28;20182;-68
2022/01/03 05:59:55;;;;;;;18.30;3.47;;;10.80;61.70;;;;;;5034420;28;20534;-69
2022/01/03 06:02:21;;;;;;;15.87;3.67;;;10.80;70.00;;;;;;5034379;28;20166;-69
2022/01/03 06:04:56;;;;;;;16.20;3.77;;;10.70;75.40;;;;;;5033973;28;20174;-69
2022/01/03 06:07:22;;;;;;;15.50;3.30;;;10.70;72.10;;;;;;5034325;28;20173;-70
2022/01/03 06:09:49;;;;;;;17.03;3.70;;;10.70;69.00;;;;;;5032943;28;20201;-69
2022/01/03 06:12:16;;;;;;;15.00;3.70;;;10.80;68.40;;;;;;5034024;28;20206;-70
2022/01/03 06:14:45;;;;;;;19.10;3.60;;;10.80;61.90;;;;;;5033593;28;20170;-69
2022/01/03 06:17:13;;;;;;;19.97;3.97;;;10.80;58.80;;;;;;5033012;28;20166;-69
2022/01/03 06:19:39;;;;;;;15.50;3.93;;;10.70;62.20;;;;;;5033339;28;20170;-70
2022/01/03 06:22:08;;;;;;;22.03;3.83;;;10.70;69.60;;;;;;5033638;28;20178;-70
2022/01/03 06:24:35;;;;;;;21.63;4.17;;;10.70;75.00;;;;;;5032835;28;20634;-70
2022/01/03 06:27:00;;;;;;;12.63;4.20;;;10.70;74.80;;;;;;5033532;28;20174;-70
2022/01/03 06:29:26;;;;;;;13.97;3.40;;;10.70;71.20;;;;;;5033138;28;20228;-69
2022/01/03 06:31:51;;;;;;;22.47;3.80;;;10.70;72.70;;;;;;5033164;28;20173;-69
2022/01/03 06:34:18;;;;;;;21.33;4.83;;;10.70;77.80;;;;;;5032069;28;20177;-69
2022/01/03 06:36:45;;;;;;;21.63;4.30;;;10.70;72.70;;;;;;5032980;28;20170;-70
2022/01/03 06:39:12;;;;;;;15.13;4.27;;;10.70;77.50;;;;;;5032815;28;20208;-69
2022/01/03 06:41:38;;;;;;;21.47;3.93;;;10.70;75.60;;;;;;5031952;28;20192;-70
2022/01/03 06:44:05;;;;;;;19.93;4.30;;;10.70;71.00;;;;;;5033359;28;20182;-69
2022/01/03 06:46:30;;;;;;;19.47;4.10;;;10.80;66.50;;;;;;5033343;28;20500;-70
2022/01/03 06:48:56;;;;;;;13.40;3.63;;;10.80;62.10;;;;;;5032918;28;20224;-69
2022/01/03 06:51:22;;;;;;;16.73;3.50;;;10.80;53.00;;;;;;5032668;28;20178;-70
2022/01/03 06:53:48;;;;;;;19.60;4.10;;;10.90;45.40;;;;;;5032528;28;20645;-69
2022/01/03 06:56:13;;;;;;;19.37;3.70;;;10.90;47.20;;;;;;5032458;28;20257;-70
2022/01/03 06:58:39;;;;;;;17.57;4.63;;;10.90;44.70;;;;;;5032873;28;20174;-70
2022/01/03 07:01:05;;;;;;;15.57;4.10;;;10.90;43.80;;;;;;5033099;28;20497;-69
2022/01/03 07:03:30;;;;;;;22.70;4.37;;;11.00;43.40;;;;;;5032418;28;20666;-69
2022/01/03 07:05:56;;;;;;;18.40;4.00;;;11.00;38.60;;;;;;5032959;28;20212;-70
2022/01/03 07:08:22;;;;;;;20.67;4.53;;;11.00;32.80;;;;;;5032147;28;20170;-69
2022/01/03 07:10:49;;;;;;;16.40;3.80;;;11.00;30.10;;;;;;5032324;28;20677;-69
2022/01/03 07:13:15;;;;;;;14.43;3.73;;;11.00;30.00;;;;;;5032490;28;20185;-69
2022/01/03 07:21:09;;;;;;;17.93;4.07;;;11.10;32.70;;;;;;5032484;28;20177;-70
2022/01/03 07:23:35;;;;;;;18.43;3.83;;;11.00;28.20;;;;;;5031632;28;20209;-70
2022/01/03 07:26:00;;;;;;;9.30;3.77;;;11.00;29.40;;;;;;5032406;28;20169;-70
2022/01/03 07:28:26;;;;;;;14.13;3.63;;;11.00;30.20;;;;;;5031902;28;20208;-69
2022/01/03 07:30:52;;;;;;;15.73;3.70;;;11.10;25.20;;;;;;5031166;28;20224;-69
2022/01/03 07:33:17;;;;;;;17.73;4.43;;;11.10;20.60;;;;;;5032587;28;20265;-70
2022/01/03 07:35:43;;;;;;;14.90;4.07;;;11.10;21.20;;;;;;5031925;28;20256;-69
2022/01/03 07:38:09;;;;;;;17.57;3.40;;;11.20;18.60;;;;;;5032118;28;20170;-70
2022/01/03 07:40:34;;;;;;;13.17;4.13;;;11.20;17.60;;;;;;5032695;28;20169;-69
2022/01/03 07:43:00;;;;;;;14.87;3.83;;;11.10;22.30;;;;;;5032521;28;20695;-69
2022/01/03 07:45:26;;;;;;;13.73;3.33;;;11.20;21.50;;;;;;5032381;28;20220;-69
2022/01/03 07:47:52;;;;;;;16.53;3.73;;;11.20;18.40;;;;;;5031411;28;20182;-70
2022/01/03 07:50:18;;;;;;;12.37;3.67;;;11.20;17.20;;;;;;5031854;28;20217;-70
2022/01/03 07:52:44;;;;;;;17.87;4.00;;;11.20;20.80;;;;;;5031701;28;20180;-70
2022/01/03 07:55:12;;;;;;;14.70;3.57;;;11.10;22.40;;;;;;5031084;28;20662;-71
2022/01/03 07:57:38;;;;;;;15.67;3.97;;;11.10;25.10;;;;;;5031914;28;20224;-70
2022/01/03 08:00:09;;;;;;;18.33;4.10;;;11.20;25.90;;;;;;5031788;28;20261;-70
2022/01/03 08:02:38;;;;;;;18.73;4.33;;;11.20;24.20;;;;;;5031905;28;20181;-70
2022/01/03 08:05:05;;;;;;;14.40;3.60;;;11.20;20.30;;;;;;5031219;28;20166;-71
2022/01/03 08:07:31;;;;;;;16.77;3.90;;;11.20;17.00;;;;;;5032223;28;20198;-71
2022/01/03 08:09:57;;;;;;;21.13;3.83;;;11.20;21.40;;;;;;5031861;28;20244;-71
2022/01/03 08:12:22;;;;;;;16.27;3.87;;;11.20;21.80;;;;;;5032189;28;20178;-70
2022/01/03 08:14:48;;;;;;;17.60;4.53;;;11.30;21.60;;;;;;5032000;28;20178;-71
2022/01/03 08:17:14;;;;;;;11.07;3.67;;;11.30;14.10;;;;;;5032408;28;20204;-71
2022/01/03 08:19:42;;;;;;;15.83;3.80;;;11.30;17.80;;;;;;5031582;28;20171;-71
2022/01/03 08:22:08;;;;;;;16.43;3.50;;;11.20;18.40;;;;;;5031927;28;20252;-71
2022/01/03 08:24:33;;;;;;;20.93;3.93;;;11.30;16.80;;;;;;5032056;28;20260;-73
2022/01/03 08:26:59;;;;;;;17.47;4.43;;;11.30;17.10;;;;;;5030471;28;20189;-72
2022/01/03 08:29:24;;;;;;;17.20;4.20;;;11.30;18.50;;;;;;5031885;28;20288;-71
2022/01/03 08:31:53;;;;;;;19.90;4.33;;;11.30;14.90;;;;;;5032185;28;20178;-71
2022/01/03 08:34:19;;;;;;;16.53;4.20;;;11.30;17.60;;;;;;5031246;28;20648;-70
2022/01/03 08:36:44;;;;;;;19.60;4.37;;;11.30;16.90;;;;;;5031505;28;20178;-72
2022/01/03 08:39:10;;;;;;;18.37;4.03;;;11.30;20.20;;;;;;5033586;28;20178;-71
2022/01/03 08:41:36;;;;;;;21.67;4.10;;;11.30;20.80;;;;;;5035404;28;20174;-71
2022/01/03 08:44:02;;;;;;;19.83;3.93;;;11.30;21.60;;;;;;5035304;28;20204;-71
2022/01/03 08:46:28;;;;;;;15.30;3.60;;;11.30;14.10;;;;;;5034868;28;20174;-71
2022/01/03 08:48:54;;;;;;;14.00;3.77;;;11.30;19.60;;;;;;5034567;28;20185;-71
2022/01/03 08:51:21;;;;;;;23.97;4.03;;;11.30;23.60;;;;;;5035529;28;20188;-71
2022/01/03 08:53:46;;;;;;;15.33;3.57;;;11.40;20.70;;;;;;5035155;28;20202;-72
2022/01/03 08:56:15;;;;;;;12.23;3.23;;;11.40;14.80;;;;;;5035054;28;20244;-71
2022/01/03 08:58:41;;;;;;;15.60;3.70;;;11.40;9.30;;;;;;5034822;28;20224;-70
2022/01/03 09:01:07;;;;;;;16.80;3.47;;;11.50;11.90;;;;;;5034612;28;20264;-70
2022/01/03 09:03:32;;;;;;;16.17;3.13;;;11.50;9.40;;;;;;5034151;28;20181;-71
2022/01/03 09:05:58;;;;;;;13.07;3.00;;;11.50;9.30;;;;;;5034652;28;20170;-71
2022/01/03 09:08:24;;;;;;;13.93;3.53;;;11.50;7.80;;;;;;5035282;28;20173;-70
2022/01/03 09:10:51;;;;;;;12.43;2.63;;;11.50;3.70;;;;;;5034768;28;20205;-71
2022/01/03 09:13:17;;;;;;;12.70;3.43;;;11.60;2.70;;;;;;5034450;28;20260;-71
2022/01/03 09:15:46;;;;;;;13.93;3.40;;;11.50;2.70;;;;;;5034639;28;20173;-69
2022/01/03 09:18:12;;;;;;;13.50;3.50;;;11.50;7.50;;;;;;5033837;28;20170;-71
2022/01/03 09:20:38;;;;;;;14.07;3.40;;;11.60;5.60;;;;;;5034889;28;20170;-70
2022/01/03 09:23:11;;;;;;;16.43;3.23;;;11.60;5.60;;;;;;5035146;28;20276;-70
2022/01/03 09:30:49;;;;;;;15.80;3.87;;;11.60;9.30;;;;;;5034624;28;20220;-69
2022/01/03 09:33:14;;;;;;;13.90;3.33;;;11.60;9.80;;;;;;5034338;28;20240;-70
2022/01/03 09:35:41;;;;;;;14.90;3.60;;;11.50;14.20;;;;;;5033250;28;20220;-71
2022/01/03 09:38:07;;;;;;;15.37;3.30;;;11.50;19.10;;;;;;5034036;28;20173;-71
2022/01/03 09:40:34;;;;;;;10.53;3.37;;;11.50;15.20;;;;;;5034667;28;20537;-69
2022/01/03 09:43:01;;;;;;;18.30;3.90;;;11.50;16.60;;;;;;5033878;28;20170;-70
2022/01/03 09:45:32;;;;;;;12.80;3.67;;;11.50;13.30;;;;;;5034105;28;20298;-70
2022/01/03 09:47:59;;;;;;;14.10;3.60;;;11.60;14.60;;;;;;5033428;28;20649;-71
2022/01/03 09:50:25;;;;;;;15.47;3.93;;;11.60;10.20;;;;;;5033588;28;20210;-70
2022/01/03 09:52:54;;;;;;;11.30;3.73;;;11.70;11.80;;;;;;5034427;28;20173;-70
2022/01/03 09:55:21;;;;;;;16.43;3.97;;;11.60;9.90;;;;;;5033726;28;20198;-70
2022/01/03 09:57:48;;;;;;;14.03;4.07;;;11.60;10.00;;;;;;5033770;28;20205;-71
2022/01/03 10:00:22;;;;;;;13.67;4.43;;;11.70;7.00;;;;;;5033554;28;20182;-70
2022/01/03 10:02:51;;;;;;;14.67;4.33;;;11.80;6.70;;;;;;5033846;28;20177;-71
2022/01/03 10:05:18;;;;;;;15.47;4.30;;;11.80;3.40;;;;;;5033679;28;20264;-69
2022/01/03 10:07:47;;;;;;;14.10;4.30;;;11.90;1.00;;;;;;5033804;28;20253;-69
2022/01/03 10:10:13;;;;;;;23.20;4.97;;;11.90;1.00;;;;;;5033315;28;20256;-70
2022/01/03 10:12:39;;;;;;;20.00;4.37;;;11.80;2.00;;;;;;5033898;28;20213;-70
2022/01/03 10:15:07;;;;;;;16.57;4.03;;;11.90;1.50;;;;;;5033189;28;20228;-70
2022/01/03 10:17:37;;;;;;;17.00;4.67;;;12.00;1.00;;;;;;5033777;28;20170;-71
2022/01/03 10:20:09;;;;;;;18.50;4.70;;;12.00;1.00;;;;;;5032974;28;20634;-71
2022/01/03 10:22:35;;;;;;;21.37;4.87;;;11.90;8.30;;;;;;5033758;28;20523;-70
2022/01/03 10:25:26;;;;;;;19.73;4.80;;;11.80;24.70;;;;;;5033417;28;20244;-70
2022/01/03 10:27:59;;;;;;;22.00;4.77;;;11.70;35.00;;;;;;5032747;28;20246;-71
2022/01/03 10:30:35;;;;;;;17.93;4.70;;;11.60;53.70;;;;;;5032945;28;20205;-70
2022/01/03 10:33:03;;;;;;;28.33;4.80;;;11.50;62.00;;;;;;5032911;28;20174;-71
2022/01/03 10:35:35;;;;;;;19.50;4.73;;;11.40;60.00;;;;;;5033040;28;20523;-72
2022/01/03 10:38:01;;;;;;;18.57;4.83;;;11.40;64.70;;;;;;5033708;28;20205;-72
2022/01/03 10:40:29;;;;;;;20.70;5.13;;;11.40;60.10;;;;;;5033687;28;20202;-71
2022/01/03 10:43:18;;;;;;;23.17;5.37;;;11.30;65.00;;;;;;5032611;28;20214;-72
2022/01/03 10:45:45;;;;;;;22.00;5.17;;;11.20;78.20;;;;;;5032980;28;20697;-71
2022/01/03 10:48:33;;;;;;;14.43;4.83;;;11.20;80.70;;;;;;5031697;28;20166;-71
2022/01/03 10:51:01;;;;;;;20.37;6.13;;;11.30;82.40;;;;;;5032817;28;20225;-70
2022/01/03 10:53:41;;;;;;;26.00;5.57;;;11.30;82.30;;;;;;5033281;28;20206;-72
2022/01/03 10:56:32;;;;;;;20.43;5.27;;;11.30;77.90;;;;;;5032819;28;20251;-71
2022/01/03 10:59:04;;;;;;;25.87;5.60;;;11.40;69.10;;;;;;5032973;28;20173;-71
2022/01/03 11:01:31;;;;;;;23.70;5.63;;;11.40;65.00;;;;;;5031328;28;20182;-72
2022/01/03 11:04:00;;;;;;;18.40;5.40;;;11.40;57.10;;;;;;5032567;28;20219;-72
2022/01/03 11:11:45;;;;;;;21.73;5.90;;;11.60;50.00;;;;;;5032931;28;20664;-72
2022/01/03 11:14:41;;;;;;;21.33;5.33;;;11.60;49.40;;;;;;5032059;28;20180;-71
2022/01/03 11:17:29;;;;;;;23.97;5.83;;;11.60;46.80;;;;;;5032632;28;20257;-74
2022/01/03 11:20:00;;;;;;;17.43;4.87;;;11.60;52.80;;;;;;5032838;28;20201;-73
2022/01/03 11:22:41;;;;;;;22.17;4.60;;;11.60;63.80;;;;;;5032083;28;20162;-72
2022/01/03 11:25:07;;;;;;;22.33;4.90;;;11.60;63.00;;;;;;5032615;28;20254;-72
2022/01/03 11:27:38;;;;;;;18.93;5.07;;;11.60;60.60;;;;;;5032159;28;20167;-72
2022/01/03 11:30:06;;;;;;;17.80;4.83;;;11.50;69.00;;;;;;5031497;28;20282;-71
2022/01/03 11:32:34;;;;;;;16.80;4.73;;;11.40;82.80;;;;;;5031693;28;20174;-71
2022/01/03 11:35:01;;;;;;;19.47;5.33;;;11.50;76.90;;;;;;5032311;28;20201;-70
2022/01/03 11:37:32;;;;;;;19.90;4.97;;;11.50;73.60;;;;;;5032527;28;20178;-72
2022/01/03 11:40:03;;;;;;;17.93;4.40;;;11.40;79.70;;;;;;5031915;28;20218;-71
2022/01/03 11:42:32;;;;;;;13.67;4.03;;;11.30;74.60;;;;;;5032140;28;20209;-71
2022/01/03 11:44:59;;;;;;;13.70;3.53;;;11.20;72.20;;;;;;5032236;28;20263;-72
2022/01/03 11:47:27;;;;;;;13.73;3.67;;;11.10;64.70;;;;;;5031718;28;20197;-71
2022/01/03 11:49:53;;;;;;;12.47;4.17;;;11.10;63.20;;;;;;5032021;28;20304;-72
2022/01/03 11:52:20;;;;;;;48.23;31.63;;;11.00;73.60;;;;;;5032087;28;20256;-72
2022/01/03 11:54:46;;;;;;;15.73;5.73;;;11.00;78.00;;;;;;5031848;28;20197;-73
2022/01/03 11:57:22;;;;;;;19.03;3.97;;;11.00;81.60;;;;;;5032266;28;20202;-73
2022/01/03 12:05:48;;;;;;;10.40;3.77;;;10.80;98.50;;;;;;5032390;28;20189;-71
2022/01/03 12:08:22;;;;;;;11.77;3.70;;;10.50;99.90;;;;;;5031851;28;20177;-72
2022/01/03 12:10:48;;;;;;;15.50;4.63;;;10.50;99.90;;;;;;5029882;28;20292;-72
2022/01/03 12:13:15;;;;;;;10.40;3.77;;;10.50;99.90;;;;;;5031971;28;20228;-72
2022/01/03 12:15:42;;;;;;;18.07;4.47;;;10.50;99.90;;;;;;5036152;28;20240;-72
2022/01/03 12:18:28;;;;;;;10.70;3.97;;;10.50;99.90;;;;;;5035722;28;20208;-72
2022/01/03 12:20:54;;;;;;;10.17;4.03;;;10.50;99.90;;;;;;5035963;28;20556;-72
2022/01/03 12:23:40;;;;;;;16.63;6.90;;;10.50;99.90;;;;;;5035900;28;20256;-72
2022/01/03 12:26:11;;;;;;;13.27;4.30;;;10.70;99.90;;;;;;5035646;28;20178;-71
2022/01/03 12:29:14;;;;;;;11.63;4.10;;;10.80;99.90;;;;;;5035922;28;20209;-72
2022/01/03 12:32:02;;;;;;;17.37;4.27;;;10.70;99.90;;;;;;5034985;28;20192;-72
2022/01/03 12:34:27;;;;;;;14.13;4.47;;;10.70;99.90;;;;;;5035199;28;20174;-71
2022/01/03 12:37:15;;;;;;;12.10;4.30;;;10.60;99.90;;;;;;5035459;28;20535;-72
2022/01/03 12:39:59;;;;;;;10.27;4.20;;;10.70;99.90;;;;;;5035135;28;20208;-71
2022/01/03 12:42:48;;;;;;;10.37;3.60;;;10.50;99.90;;;;;;5035077;28;20280;-71
2022/01/03 12:45:36;;;;;;;16.87;4.80;;;10.50;99.90;;;;;;5035476;28;20493;-72
2022/01/03 12:48:11;;;;;;;13.20;4.27;;;10.50;99.90;;;;;;5037444;28;20274;-73
2022/01/03 12:50:36;;;;;;;25.53;16.50;;;10.60;99.90;;;;;;5032860;28;20696;-71
2022/01/03 12:53:04;;;;;;;13.13;4.97;;;10.60;99.90;;;;;;5033906;28;20177;-71
2022/01/03 12:55:40;;;;;;;13.43;4.43;;;10.50;99.90;;;;;;5034431;28;20286;-72
2022/01/03 12:58:16;;;;;;;10.40;4.50;;;10.60;99.90;;;;;;5035401;28;20367;-72
2022/01/03 13:00:52;;;;;;;6.87;2.90;;;10.50;99.90;;;;;;5034885;28;20173;-72
2022/01/03 13:03:41;;;;;;;7.37;3.37;;;10.50;99.90;;;;;;5034948;28;20198;-72
2022/01/03 13:06:16;;;;;;;8.83;2.80;;;10.50;99.90;;;;;;5034719;28;20174;-72
2022/01/03 13:08:47;;;;;;;5.83;2.43;;;10.40;99.90;;;;;;5034958;28;20173;-71